Time;durP1;ratioP1;P1;durP2;ratioP2;P2;SDS_P1;SDS_P2;PMS_P1;PMS_P2;Temp;Humidity;BMP_temperature;BMP_pressure;BME280_temperature;BME280_humidity;BME280_pressure;Samples;Min_cycle;Max_cycle;Signal;HPM_P1;HPM_P2
2020/12/19 00:01:06;;;;;;;11.27;8.38;;;5.50;99.90;;;;;;5015652;28;20298;-84
2020/12/19 00:03:32;;;;;;;12.02;8.95;;;5.50;99.90;;;;;;5015542;28;20290;-83
2020/12/19 00:05:58;;;;;;;13.48;9.15;;;5.40;99.90;;;;;;5013355;28;20207;-83
2020/12/19 00:08:31;;;;;;;12.90;9.07;;;5.40;99.90;;;;;;5015452;28;20238;-83
2020/12/19 00:10:58;;;;;;;18.77;10.00;;;5.30;99.90;;;;;;5015263;28;20326;-84
2020/12/19 00:13:24;;;;;;;9.10;7.25;;;5.20;99.90;;;;;;5015472;28;20286;-84
2020/12/19 00:15:51;;;;;;;13.32;9.38;;;5.20;99.90;;;;;;5015437;28;20349;-83
2020/12/19 00:18:17;;;;;;;9.98;7.53;;;5.30;99.90;;;;;;5015276;28;20571;-83
2020/12/19 00:20:43;;;;;;;10.27;7.32;;;5.30;99.90;;;;;;5013747;28;20627;-83
2020/12/19 00:23:10;;;;;;;11.45;8.00;;;5.40;99.90;;;;;;5015211;28;20235;-83
2020/12/19 00:25:37;;;;;;;12.00;7.90;;;5.50;99.90;;;;;;5015044;28;20345;-83
2020/12/19 00:28:04;;;;;;;9.23;7.15;;;5.60;99.90;;;;;;5015092;28;20726;-83
2020/12/19 00:30:30;;;;;;;9.70;7.07;;;5.60;99.90;;;;;;5014987;28;20314;-83
2020/12/19 00:32:56;;;;;;;9.65;7.97;;;5.70;99.90;;;;;;5014765;28;20270;-84
2020/12/19 00:35:23;;;;;;;8.68;7.38;;;5.70;99.90;;;;;;5012691;28;20290;-84
2020/12/19 00:37:49;;;;;;;10.82;7.05;;;5.70;99.90;;;;;;5014843;28;20364;-83
2020/12/19 00:40:15;;;;;;;9.63;7.53;;;5.60;99.90;;;;;;5014604;28;20294;-84
2020/12/19 00:42:42;;;;;;;9.40;6.72;;;5.50;99.90;;;;;;5011852;28;20818;-84
2020/12/19 00:45:09;;;;;;;9.85;7.53;;;5.50;99.90;;;;;;5014767;28;20302;-84
2020/12/19 00:47:36;;;;;;;8.00;7.20;;;5.50;99.90;;;;;;5014645;28;20312;-85
2020/12/19 00:50:04;;;;;;;9.95;8.10;;;5.40;99.90;;;;;;5013189;28;20652;-84
2020/12/19 00:52:30;;;;;;;9.60;7.78;;;5.30;99.90;;;;;;5014698;28;20682;-84
2020/12/19 00:54:56;;;;;;;11.15;8.38;;;5.30;99.90;;;;;;5014540;28;20286;-84
2020/12/19 00:57:23;;;;;;;11.55;9.18;;;5.30;99.90;;;;;;5014515;28;20235;-84
2020/12/19 00:59:50;;;;;;;10.48;8.60;;;5.20;99.90;;;;;;5014441;28;20291;-84
2020/12/19 01:02:16;;;;;;;11.27;8.98;;;5.20;99.90;;;;;;5014391;28;20246;-84
2020/12/19 01:04:43;;;;;;;10.38;8.05;;;5.30;99.90;;;;;;5012287;28;20282;-84
2020/12/19 01:07:10;;;;;;;11.90;7.60;;;5.40;99.90;;;;;;5014204;28;20294;-83
2020/12/19 01:09:37;;;;;;;11.02;8.68;;;5.60;99.90;;;;;;5013390;28;20228;-84
2020/12/19 01:12:05;;;;;;;13.40;8.10;;;5.80;99.90;;;;;;5014130;28;20756;-84
2020/12/19 01:14:32;;;;;;;7.25;6.55;;;5.90;99.90;;;;;;5014198;28;20203;-84
2020/12/19 01:16:59;;;;;;;9.93;7.68;;;6.00;99.90;;;;;;5014157;28;20298;-84
2020/12/19 01:19:25;;;;;;;9.90;7.85;;;6.00;99.90;;;;;;5009604;28;20211;-84
2020/12/19 01:21:52;;;;;;;9.88;7.32;;;6.00;99.90;;;;;;5013962;28;20242;-84
2020/12/19 01:24:18;;;;;;;10.77;7.13;;;6.00;99.90;;;;;;5014063;28;20302;-84
2020/12/19 01:26:44;;;;;;;9.70;7.40;;;5.90;99.90;;;;;;5014047;28;20306;-83
2020/12/19 01:29:11;;;;;;;12.88;8.55;;;5.90;99.90;;;;;;5013976;28;20724;-83
2020/12/19 01:31:37;;;;;;;10.93;7.28;;;5.80;99.90;;;;;;5009578;28;20314;-83
2020/12/19 01:34:04;;;;;;;8.05;6.55;;;5.60;99.90;;;;;;5011442;28;20323;-83
2020/12/19 01:36:31;;;;;;;7.30;6.60;;;5.50;99.90;;;;;;5013718;28;20294;-84
2020/12/19 01:38:57;;;;;;;9.88;7.10;;;5.40;99.90;;;;;;5013773;28;20635;-84
2020/12/19 01:41:23;;;;;;;10.35;7.65;;;5.30;99.90;;;;;;5013858;28;20294;-84
2020/12/19 01:43:51;;;;;;;7.88;7.07;;;5.30;99.90;;;;;;5013745;28;20286;-83
2020/12/19 01:46:27;;;;;;;15.15;8.98;;;5.20;99.90;;;;;;5013699;28;20286;-84
2020/12/19 01:48:56;;;;;;;10.70;8.20;;;5.20;99.90;;;;;;5013122;28;20289;-84
2020/12/19 01:51:24;;;;;;;8.77;6.88;;;5.20;99.90;;;;;;5013179;28;20286;-84
2020/12/19 01:53:51;;;;;;;10.13;8.18;;;5.20;99.90;;;;;;5013543;28;20290;-84
2020/12/19 01:56:24;;;;;;;12.45;7.55;;;5.30;99.90;;;;;;5013547;28;20290;-84
2020/12/19 01:58:51;;;;;;;9.48;7.28;;;5.30;99.90;;;;;;5013385;28;20298;-83
2020/12/19 02:01:19;;;;;;;9.73;7.25;;;5.30;99.90;;;;;;5013360;28;20294;-84
2020/12/19 02:03:45;;;;;;;10.15;8.20;;;5.30;99.90;;;;;;5012991;28;20697;-84
2020/12/19 02:06:13;;;;;;;13.40;8.70;;;5.30;99.90;;;;;;5012038;28;20744;-84
2020/12/19 02:08:43;;;;;;;8.65;7.72;;;5.40;99.90;;;;;;5013243;28;20214;-83
2020/12/19 02:13:54;;;;;;;9.95;8.38;;;5.30;99.90;;;;;;5013253;28;20203;-83
2020/12/19 02:16:21;;;;;;;7.88;7.07;;;5.20;99.90;;;;;;5013316;28;20215;-83
2020/12/19 02:18:47;;;;;;;11.20;7.85;;;5.20;99.90;;;;;;5013004;28;20294;-83
2020/12/19 02:21:14;;;;;;;8.98;8.07;;;5.10;99.90;;;;;;5012010;28;20350;-83
2020/12/19 02:23:41;;;;;;;9.00;8.10;;;5.10;99.90;;;;;;5013169;28;20294;-84
2020/12/19 02:26:10;;;;;;;12.05;6.50;;;5.00;99.90;;;;;;5013221;28;20262;-82
2020/12/19 02:28:36;;;;;;;12.05;8.02;;;5.00;99.90;;;;;;5013024;28;20310;-82
2020/12/19 02:31:03;;;;;;;9.02;7.00;;;4.90;99.90;;;;;;5013001;28;20327;-83
2020/12/19 02:33:29;;;;;;;8.57;6.80;;;4.90;99.90;;;;;;5012601;28;20682;-83
2020/12/19 02:35:56;;;;;;;9.70;7.00;;;4.80;99.90;;;;;;5010811;28;20199;-83
2020/12/19 02:38:22;;;;;;;9.13;7.30;;;4.80;99.90;;;;;;5012952;28;20580;-84
2020/12/19 02:40:50;;;;;;;9.93;7.50;;;4.70;99.90;;;;;;5012877;28;20207;-83
2020/12/19 02:43:16;;;;;;;11.25;7.15;;;4.80;99.90;;;;;;5012803;28;20296;-83
2020/12/19 02:45:43;;;;;;;10.00;7.95;;;4.80;99.90;;;;;;5012901;28;20290;-83
2020/12/19 02:48:09;;;;;;;7.65;6.95;;;4.80;99.90;;;;;;5012852;28;20207;-84
2020/12/19 02:50:35;;;;;;;10.52;7.22;;;4.80;99.90;;;;;;5011567;28;20313;-83
2020/12/19 02:53:02;;;;;;;11.13;7.70;;;4.70;99.90;;;;;;5012585;28;20207;-83
2020/12/19 02:55:28;;;;;;;9.25;7.55;;;4.70;99.90;;;;;;5012733;28;20243;-83
2020/12/19 02:57:55;;;;;;;10.25;7.93;;;4.60;99.90;;;;;;5012813;28;20288;-84
2020/12/19 03:00:21;;;;;;;8.02;6.82;;;4.50;99.90;;;;;;5012906;28;20306;-84
2020/12/19 03:02:48;;;;;;;10.52;6.80;;;4.40;99.90;;;;;;5013311;28;20200;-84
2020/12/19 03:05:14;;;;;;;8.13;7.18;;;4.40;99.90;;;;;;5012377;28;20250;-83
2020/12/19 03:07:41;;;;;;;10.32;7.75;;;4.40;99.90;;;;;;5015026;28;20290;-83
2020/12/19 03:10:07;;;;;;;13.70;8.52;;;4.40;99.90;;;;;;5015447;28;20406;-85
2020/12/19 03:12:33;;;;;;;8.55;7.15;;;4.30;99.90;;;;;;5014560;28;20286;-83
2020/12/19 03:15:00;;;;;;;12.43;7.63;;;4.30;99.90;;;;;;5012806;28;20238;-84
2020/12/19 03:17:27;;;;;;;9.93;8.30;;;4.40;99.90;;;;;;5012719;28;20290;-83
2020/12/19 03:19:53;;;;;;;11.38;7.50;;;4.40;99.90;;;;;;5011148;28;20243;-84
2020/12/19 03:22:19;;;;;;;11.07;7.60;;;4.60;99.90;;;;;;5012560;28;20299;-84
2020/12/19 03:24:46;;;;;;;12.68;6.95;;;4.70;99.90;;;;;;5012680;28;20243;-83
2020/12/19 03:27:12;;;;;;;11.93;8.13;;;4.80;99.90;;;;;;5012443;28;20246;-83
2020/12/19 03:29:38;;;;;;;12.70;8.20;;;4.80;99.90;;;;;;5012468;28;20294;-83
2020/12/19 03:32:06;;;;;;;8.25;6.97;;;4.70;99.90;;;;;;5012355;28;20298;-84
2020/12/19 03:34:33;;;;;;;9.85;7.47;;;4.70;99.90;;;;;;5014542;28;20239;-84
2020/12/19 03:37:00;;;;;;;13.52;8.63;;;4.80;99.90;;;;;;5015148;28;20207;-84
2020/12/19 03:39:26;;;;;;;10.55;7.63;;;4.80;99.90;;;;;;5016072;28;20273;-84
2020/12/19 03:41:52;;;;;;;9.82;8.38;;;4.80;99.90;;;;;;5015969;28;20294;-83
2020/12/19 03:44:19;;;;;;;8.38;7.00;;;4.70;99.90;;;;;;5016166;28;20203;-84
2020/12/19 03:46:45;;;;;;;11.40;8.35;;;4.60;99.90;;;;;;5016165;28;20207;-84
2020/12/19 03:49:15;;;;;;;10.75;7.50;;;4.60;99.90;;;;;;5014791;28;20211;-84
2020/12/19 03:51:41;;;;;;;11.70;7.47;;;4.60;99.90;;;;;;5023572;28;20294;-83
2020/12/19 03:54:08;;;;;;;11.35;7.70;;;4.50;99.90;;;;;;5023716;28;20203;-84
2020/12/19 03:56:34;;;;;;;8.50;7.60;;;4.50;99.90;;;;;;5015912;28;20282;-84
2020/12/19 03:59:01;;;;;;;11.40;7.28;;;4.40;99.90;;;;;;5015678;28;20299;-83
2020/12/19 04:01:27;;;;;;;9.30;7.75;;;4.30;99.90;;;;;;5015686;28;20212;-84
2020/12/19 04:03:54;;;;;;;8.85;6.78;;;4.30;99.90;;;;;;5015583;28;20294;-84
2020/12/19 04:06:21;;;;;;;12.55;8.35;;;4.30;99.90;;;;;;5014306;28;20298;-84
2020/12/19 04:08:47;;;;;;;7.93;6.28;;;4.30;99.90;;;;;;5015432;28;20261;-84
2020/12/19 04:11:14;;;;;;;14.02;7.18;;;4.30;99.90;;;;;;5012588;28;20237;-84
2020/12/19 04:13:40;;;;;;;9.65;7.25;;;4.30;99.90;;;;;;5015425;28;20290;-84
2020/12/19 04:16:07;;;;;;;11.43;7.90;;;4.30;99.90;;;;;;5015453;28;20301;-84
2020/12/19 04:18:33;;;;;;;10.68;7.07;;;4.30;99.90;;;;;;5015390;28;20235;-84
2020/12/19 04:20:59;;;;;;;9.68;7.35;;;4.20;99.90;;;;;;5013813;28;20215;-84
2020/12/19 04:23:27;;;;;;;9.73;7.20;;;4.10;99.90;;;;;;5015234;28;20211;-84
2020/12/19 04:25:53;;;;;;;11.88;8.63;;;4.00;99.90;;;;;;4964611;28;20338;-84
2020/12/19 04:28:19;;;;;;;11.95;7.65;;;3.90;99.90;;;;;;5015103;28;20298;-84
2020/12/19 04:30:46;;;;;;;11.80;8.30;;;3.80;99.90;;;;;;5015109;28;20322;-83
2020/12/19 04:33:12;;;;;;;8.88;6.90;;;3.80;99.90;;;;;;5014897;28;20239;-84
2020/12/19 04:35:38;;;;;;;8.23;7.15;;;3.70;99.90;;;;;;5013766;28;20290;-84
2020/12/19 04:38:05;;;;;;;8.80;7.35;;;3.70;99.90;;;;;;5014652;28;20620;-84
2020/12/19 04:40:32;;;;;;;10.63;7.75;;;3.60;99.90;;;;;;5014854;28;20313;-84
2020/12/19 04:42:59;;;;;;;7.97;7.15;;;3.60;99.90;;;;;;5014817;28;20204;-84
2020/12/19 04:45:26;;;;;;;10.05;8.10;;;3.60;99.90;;;;;;5013901;28;20215;-84
2020/12/19 04:47:52;;;;;;;10.73;7.70;;;3.60;99.90;;;;;;5014679;28;20299;-84
2020/12/19 04:50:21;;;;;;;9.18;6.50;;;3.50;99.90;;;;;;5013389;28;20237;-84
2020/12/19 04:52:47;;;;;;;8.93;7.63;;;3.40;99.90;;;;;;5014319;28;20246;-84
2020/12/19 04:55:14;;;;;;;9.27;7.50;;;3.40;99.90;;;;;;5014535;28;20261;-84
2020/12/19 04:57:45;;;;;;;10.40;8.35;;;3.40;99.90;;;;;;5011544;28;20204;-84
2020/12/19 05:00:11;;;;;;;10.50;7.80;;;3.40;99.90;;;;;;5014507;28;20247;-84
2020/12/19 05:02:38;;;;;;;8.82;6.63;;;3.40;99.90;;;;;;5014562;28;20257;-84
2020/12/19 05:05:06;;;;;;;7.88;7.18;;;3.30;99.90;;;;;;5013151;28;20231;-85
2020/12/19 05:07:32;;;;;;;10.32;7.88;;;3.30;99.90;;;;;;5014121;28;20349;-84
2020/12/19 05:09:59;;;;;;;12.07;7.72;;;3.30;99.90;;;;;;5014301;28;20230;-84
2020/12/19 05:12:26;;;;;;;11.02;8.35;;;3.30;99.90;;;;;;5014310;28;20215;-84
2020/12/19 05:14:53;;;;;;;8.52;6.57;;;3.20;99.90;;;;;;5011403;28;20257;-84
2020/12/19 05:17:20;;;;;;;9.98;7.65;;;3.20;99.90;;;;;;5014103;28;20299;-84
2020/12/19 05:19:51;;;;;;;10.88;7.93;;;3.20;99.90;;;;;;5012843;28;20282;-84
2020/12/19 05:22:18;;;;;;;10.77;8.25;;;3.30;99.90;;;;;;5013916;28;20208;-83
2020/12/19 05:24:45;;;;;;;13.65;9.60;;;3.40;99.90;;;;;;5014146;28;20302;-84
2020/12/19 05:27:12;;;;;;;13.27;8.73;;;3.50;99.90;;;;;;5013979;28;20306;-84
2020/12/19 05:29:39;;;;;;;10.55;8.00;;;3.50;99.90;;;;;;5013882;28;20671;-84
2020/12/19 05:32:06;;;;;;;10.95;8.30;;;3.40;99.90;;;;;;5011015;28;20294;-84
2020/12/19 05:34:32;;;;;;;15.98;7.38;;;3.40;99.90;;;;;;5012560;28;20207;-84
2020/12/19 05:37:00;;;;;;;9.93;7.93;;;3.40;99.90;;;;;;5012908;28;20591;-84
2020/12/19 05:39:26;;;;;;;11.48;7.35;;;3.20;99.90;;;;;;5013709;28;20199;-84
2020/12/19 05:41:54;;;;;;;9.95;8.45;;;3.20;99.90;;;;;;5013700;28;20763;-84
2020/12/19 05:44:22;;;;;;;15.95;10.02;;;3.10;99.90;;;;;;5013670;28;20721;-84
2020/12/19 05:46:49;;;;;;;7.53;6.80;;;3.10;99.90;;;;;;5013640;28;20797;-85
2020/12/19 05:49:17;;;;;;;7.30;5.85;;;3.10;99.90;;;;;;5012444;28;21042;-84
2020/12/19 05:51:44;;;;;;;10.05;7.60;;;3.20;99.90;;;;;;5013263;28;20251;-85
2020/12/19 05:54:12;;;;;;;8.80;7.40;;;3.20;99.90;;;;;;5013795;28;20288;-84
2020/12/19 05:56:40;;;;;;;11.32;7.90;;;3.20;99.90;;;;;;5013313;28;20326;-84
2020/12/19 05:59:11;;;;;;;14.77;8.68;;;3.10;99.90;;;;;;5013537;28;20310;-84
2020/12/19 06:01:40;;;;;;;11.77;8.77;;;3.00;99.90;;;;;;5013358;28;20211;-84
2020/12/19 06:04:08;;;;;;;10.43;8.15;;;3.00;99.90;;;;;;5012219;28;20233;-84
2020/12/19 06:06:37;;;;;;;9.23;7.35;;;3.00;99.90;;;;;;5013154;28;20207;-84
2020/12/19 06:09:04;;;;;;;10.50;7.20;;;3.10;99.90;;;;;;5013626;28;20266;-84
2020/12/19 06:11:39;;;;;;;12.48;7.97;;;3.10;99.90;;;;;;5013185;28;20227;-84
2020/12/19 06:14:09;;;;;;;8.10;6.70;;;3.00;99.90;;;;;;5013197;28;20682;-84
2020/12/19 06:16:41;;;;;;;11.77;7.30;;;2.90;99.90;;;;;;5013379;28;20849;-84
2020/12/19 06:19:15;;;;;;;10.38;8.40;;;2.90;99.90;;;;;;5011928;28;20218;-83
2020/12/19 06:21:48;;;;;;;9.18;7.63;;;2.90;99.90;;;;;;5007674;28;20222;-83
2020/12/19 06:24:42;;;;;;;9.52;8.07;;;2.80;99.90;;;;;;5013092;28;20215;-84
2020/12/19 06:27:40;;;;;;;11.68;7.20;;;2.80;99.90;;;;;;5013215;28;20290;-83
2020/12/19 06:30:28;;;;;;;10.50;8.65;;;2.80;99.90;;;;;;5013189;28;20227;-84
2020/12/19 06:33:17;;;;;;;15.35;10.52;;;2.90;99.90;;;;;;5012901;28;20235;-84
2020/12/19 06:35:53;;;;;;;9.63;7.85;;;2.90;99.90;;;;;;5010750;28;20203;-84
2020/12/19 06:38:40;;;;;;;8.80;7.85;;;2.90;99.90;;;;;;5012949;28;20230;-83
2020/12/19 06:41:06;;;;;;;11.07;9.30;;;2.90;99.90;;;;;;5012852;28;20294;-84
2020/12/19 06:43:33;;;;;;;10.85;7.45;;;3.00;99.90;;;;;;5012984;28;20653;-84
2020/12/19 06:45:59;;;;;;;12.35;9.65;;;3.00;99.90;;;;;;5012976;28;20284;-84
2020/12/19 06:48:29;;;;;;;10.82;7.88;;;2.90;99.90;;;;;;5012960;28;20203;-83
2020/12/19 06:50:56;;;;;;;13.70;10.02;;;2.90;99.90;;;;;;5011513;28;20242;-83
2020/12/19 06:53:23;;;;;;;10.88;6.93;;;2.90;99.90;;;;;;5013033;28;20298;-83
2020/12/19 06:55:51;;;;;;;12.50;7.95;;;2.90;99.90;;;;;;5012878;28;20313;-84
2020/12/19 06:58:28;;;;;;;10.90;8.30;;;2.80;99.90;;;;;;5012824;28;20667;-83
2020/12/19 07:00:54;;;;;;;11.35;8.73;;;2.70;99.90;;;;;;5012672;28;20207;-84
2020/12/19 07:03:39;;;;;;;9.70;8.15;;;2.70;99.90;;;;;;5011755;28;20196;-84
2020/12/19 07:06:09;;;;;;;11.32;8.13;;;2.70;99.90;;;;;;5011576;28;20212;-84
2020/12/19 07:08:36;;;;;;;11.00;8.38;;;2.60;99.90;;;;;;5015269;28;20210;-83
2020/12/19 07:11:04;;;;;;;11.13;8.02;;;2.60;99.90;;;;;;5016456;28;20258;-84
2020/12/19 07:13:50;;;;;;;10.68;7.22;;;2.60;99.90;;;;;;5016524;28;20290;-85
2020/12/19 07:16:48;;;;;;;9.57;7.55;;;2.60;99.90;;;;;;5016554;28;20306;-84
2020/12/19 07:19:16;;;;;;;11.98;7.85;;;2.60;99.90;;;;;;5014999;28;20298;-84
2020/12/19 07:21:42;;;;;;;10.40;8.52;;;2.70;99.90;;;;;;5016426;28;20302;-84
2020/12/19 07:24:10;;;;;;;11.93;9.10;;;2.80;99.90;;;;;;5016354;28;20291;-84
2020/12/19 07:26:38;;;;;;;9.82;8.18;;;2.80;99.90;;;;;;5016572;28;20671;-84
2020/12/19 07:29:13;;;;;;;12.38;9.48;;;2.80;99.90;;;;;;5016230;28;20298;-84
2020/12/19 07:31:59;;;;;;;12.80;8.10;;;2.80;99.90;;;;;;5016121;28;20325;-84
2020/12/19 07:34:26;;;;;;;9.07;7.80;;;2.80;99.90;;;;;;5013196;28;20207;-84
2020/12/19 07:36:54;;;;;;;10.35;7.47;;;2.80;99.90;;;;;;5016300;28;20207;-84
2020/12/19 07:39:22;;;;;;;8.90;6.82;;;2.90;99.90;;;;;;5016180;28;20291;-84
2020/12/19 07:42:01;;;;;;;13.25;7.32;;;2.90;99.90;;;;;;5015269;28;20203;-84
2020/12/19 07:44:28;;;;;;;13.85;7.95;;;3.00;99.90;;;;;;5015977;28;20212;-85
2020/12/19 07:46:57;;;;;;;9.27;7.13;;;3.00;99.90;;;;;;5015903;28;20207;-85
2020/12/19 07:49:25;;;;;;;9.02;6.78;;;3.10;99.90;;;;;;5014475;28;20207;-85
2020/12/19 07:52:03;;;;;;;10.25;7.18;;;3.10;99.90;;;;;;5015763;28;20238;-84
2020/12/19 07:54:30;;;;;;;11.43;8.13;;;3.10;99.90;;;;;;5015841;28;20207;-83
2020/12/19 07:56:58;;;;;;;8.30;6.95;;;3.10;99.90;;;;;;5015804;28;20303;-81
2020/12/19 07:59:25;;;;;;;9.13;7.53;;;3.10;99.90;;;;;;5015760;28;20297;-82
2020/12/19 08:01:51;;;;;;;9.88;6.65;;;3.10;99.90;;;;;;5015751;28;20203;-83
2020/12/19 08:04:17;;;;;;;13.15;8.23;;;3.20;99.90;;;;;;5014154;28;20207;-84
2020/12/19 08:06:45;;;;;;;11.45;8.20;;;3.20;99.90;;;;;;5011815;28;20308;-81
2020/12/19 08:09:11;;;;;;;9.07;7.55;;;3.20;99.90;;;;;;5015690;28;20230;-81
2020/12/19 08:11:44;;;;;;;8.65;7.68;;;3.20;99.90;;;;;;5012364;28;20238;-81
2020/12/19 08:14:14;;;;;;;7.80;6.72;;;3.30;99.90;;;;;;5017238;28;20341;-82
2020/12/19 08:16:41;;;;;;;9.27;6.80;;;3.40;99.90;;;;;;5015382;28;20210;-80
2020/12/19 08:19:09;;;;;;;10.57;6.90;;;3.40;99.90;;;;;;5013559;28;20206;-82
2020/12/19 08:21:37;;;;;;;12.35;8.50;;;3.50;99.90;;;;;;5015260;28;20302;-81
2020/12/19 08:24:04;;;;;;;15.60;8.90;;;3.50;99.90;;;;;;5015237;28;20290;-81
2020/12/19 08:26:32;;;;;;;14.27;8.00;;;3.60;99.90;;;;;;5015236;28;20290;-82
2020/12/19 08:29:03;;;;;;;8.00;6.30;;;3.70;99.90;;;;;;5015099;28;20683;-80
2020/12/19 08:31:33;;;;;;;9.27;7.93;;;3.70;99.90;;;;;;5015012;28;20237;-80
2020/12/19 08:34:03;;;;;;;8.38;7.20;;;3.80;99.90;;;;;;5012587;28;20235;-79
2020/12/19 08:36:30;;;;;;;7.55;6.72;;;3.80;99.90;;;;;;5015033;28;20613;-80
2020/12/19 08:39:15;;;;;;;9.43;7.20;;;3.90;99.90;;;;;;5015006;28;20291;-79
2020/12/19 08:41:42;;;;;;;7.25;5.75;;;4.00;99.90;;;;;;5014861;28;20238;-80
2020/12/19 08:44:22;;;;;;;9.63;5.90;;;4.10;99.90;;;;;;5014773;28;20631;-80
2020/12/19 08:47:02;;;;;;;7.57;6.65;;;4.10;99.90;;;;;;5014766;28;20226;-80
2020/12/19 08:49:28;;;;;;;8.98;6.95;;;4.20;99.90;;;;;;5013285;28;20663;-80
2020/12/19 08:51:55;;;;;;;6.72;6.13;;;4.30;99.90;;;;;;5014568;28;20228;-80
2020/12/19 08:54:22;;;;;;;8.13;5.45;;;4.40;99.90;;;;;;5014685;28;20305;-80
2020/12/19 08:56:50;;;;;;;7.28;6.43;;;4.50;99.90;;;;;;5014383;28;20569;-81
2020/12/19 08:59:25;;;;;;;14.20;7.05;;;4.50;99.90;;;;;;5014562;28;20210;-80
2020/12/19 09:01:54;;;;;;;6.65;6.03;;;4.60;99.90;;;;;;4980103;28;20211;-80
2020/12/19 09:04:21;;;;;;;8.93;5.47;;;4.70;99.90;;;;;;5012903;28;20243;-80
2020/12/19 09:06:48;;;;;;;7.50;6.50;;;4.80;99.90;;;;;;5013723;28;20242;-80
2020/12/19 09:09:19;;;;;;;7.82;6.38;;;4.90;99.90;;;;;;5014282;28;20207;-81
2020/12/19 09:11:45;;;;;;;8.45;6.20;;;5.10;99.90;;;;;;5014321;28;20281;-82
2020/12/19 09:14:13;;;;;;;9.40;6.57;;;5.10;99.90;;;;;;5014346;28;20237;-82
2020/12/19 09:16:47;;;;;;;6.65;5.93;;;5.20;99.90;;;;;;5014282;28;20204;-82
2020/12/19 09:19:15;;;;;;;6.38;4.85;;;5.40;99.90;;;;;;5012613;28;20206;-82
2020/12/19 09:21:42;;;;;;;6.88;5.13;;;5.50;99.90;;;;;;5014054;28;20753;-83
2020/12/19 09:24:08;;;;;;;7.32;5.45;;;5.50;99.90;;;;;;5014048;28;20212;-82
2020/12/19 09:26:34;;;;;;;6.97;5.35;;;5.50;99.90;;;;;;5013995;28;20286;-82
2020/12/19 09:29:01;;;;;;;7.03;5.38;;;5.60;99.90;;;;;;5013969;28;20290;-82
2020/12/19 09:31:28;;;;;;;6.85;6.15;;;5.70;99.90;;;;;;5013365;28;20606;-81
2020/12/19 09:33:55;;;;;;;6.95;6.07;;;5.80;99.90;;;;;;5013453;28;20245;-79
2020/12/19 09:36:23;;;;;;;8.73;6.20;;;5.80;99.90;;;;;;5012212;28;20211;-81
2020/12/19 09:38:49;;;;;;;6.50;5.82;;;6.00;99.90;;;;;;5013645;28;20300;-81
2020/12/19 09:41:16;;;;;;;7.60;5.45;;;6.00;99.90;;;;;;5013844;28;20290;-80
2020/12/19 09:43:42;;;;;;;7.07;5.28;;;6.10;99.90;;;;;;5014538;28;20203;-82
2020/12/19 09:46:13;;;;;;;7.20;6.50;;;6.10;99.90;;;;;;5014572;28;20547;-81
2020/12/19 09:48:40;;;;;;;7.43;6.30;;;6.20;99.90;;;;;;5013645;28;20203;-80
2020/12/19 09:51:07;;;;;;;8.57;5.70;;;6.30;99.90;;;;;;5012639;28;20318;-81
2020/12/19 09:53:34;;;;;;;7.40;6.70;;;6.40;99.90;;;;;;5014285;28;20207;-82
2020/12/19 09:56:01;;;;;;;7.20;5.93;;;6.50;99.90;;;;;;5013486;28;20253;-82
2020/12/19 09:58:27;;;;;;;7.55;6.07;;;6.60;99.90;;;;;;5012270;28;20310;-83
2020/12/19 10:00:53;;;;;;;9.85;6.43;;;6.60;99.90;;;;;;5016434;28;20299;-82
2020/12/19 10:03:20;;;;;;;7.40;6.70;;;6.70;99.90;;;;;;5016749;28;20303;-81
2020/12/19 10:05:47;;;;;;;7.15;6.45;;;7.30;99.90;;;;;;5012154;28;20207;-81
2020/12/19 10:08:14;;;;;;;8.30;6.70;;;7.30;99.90;;;;;;5014520;28;20303;-80
2020/12/19 10:10:44;;;;;;;9.27;6.63;;;7.30;99.90;;;;;;5014579;28;20231;-82
2020/12/19 10:13:10;;;;;;;8.50;6.47;;;7.50;99.90;;;;;;5013315;28;20297;-82
2020/12/19 10:15:37;;;;;;;6.25;5.38;;;7.40;99.90;;;;;;5013317;28;20203;-83
2020/12/19 10:18:03;;;;;;;9.05;6.95;;;7.40;99.90;;;;;;5013237;28;20299;-82
2020/12/19 10:20:30;;;;;;;7.13;5.00;;;7.40;99.90;;;;;;5011806;28;20214;-82
2020/12/19 10:22:56;;;;;;;6.70;5.70;;;7.50;99.90;;;;;;5013124;28;20965;-81
2020/12/19 10:25:23;;;;;;;7.15;5.70;;;7.60;99.90;;;;;;5013104;28;20810;-82
2020/12/19 10:27:50;;;;;;;7.53;6.70;;;7.70;99.90;;;;;;5012996;28;20203;-80
2020/12/19 10:30:16;;;;;;;6.60;5.93;;;7.90;99.90;;;;;;5012772;28;20238;-80
2020/12/19 10:32:42;;;;;;;7.32;6.07;;;8.00;99.90;;;;;;5012801;28;20666;-80
2020/12/19 10:35:09;;;;;;;6.20;5.53;;;8.10;99.90;;;;;;5011354;28;20694;-81
2020/12/19 10:37:36;;;;;;;7.53;4.97;;;8.20;99.90;;;;;;5012975;28;20291;-81
2020/12/19 10:40:04;;;;;;;6.87;5.83;;;8.20;99.90;;;;;;5012902;28;20235;-81
2020/12/19 10:42:32;;;;;;;7.15;5.85;;;8.30;99.90;;;;;;5013715;28;20454;-81
2020/12/19 10:44:59;;;;;;;6.23;5.60;;;8.50;99.90;;;;;;5017123;28;20286;-78
2020/12/19 10:47:27;;;;;;;6.37;5.77;;;8.60;99.90;;;;;;5016989;28;20462;-80
2020/12/19 10:49:53;;;;;;;7.28;6.40;;;8.60;99.90;;;;;;5015428;28;20553;-81
2020/12/19 10:52:20;;;;;;;7.43;5.67;;;8.70;99.90;;;;;;5016807;28;20337;-81
2020/12/19 10:54:46;;;;;;;7.17;5.70;;;8.80;99.90;;;;;;5016972;28;20545;-83
2020/12/19 10:57:12;;;;;;;6.60;4.90;;;8.70;99.90;;;;;;5016785;28;20455;-82
2020/12/19 10:59:39;;;;;;;7.07;5.33;;;8.80;99.90;;;;;;5016872;28;20486;-82
2020/12/19 11:02:06;;;;;;;9.73;4.97;;;8.90;99.90;;;;;;5016656;28;20541;-82
2020/12/19 11:04:32;;;;;;;7.60;5.40;;;9.00;99.90;;;;;;5015225;28;20442;-82
2020/12/19 11:06:59;;;;;;;7.13;6.13;;;9.20;99.90;;;;;;5016673;28;20497;-81
2020/12/19 11:09:25;;;;;;;11.63;6.83;;;9.30;99.90;;;;;;5016462;28;20505;-81
2020/12/19 11:11:54;;;;;;;9.10;6.93;;;9.40;99.90;;;;;;5016437;28;20533;-80
2020/12/19 11:14:20;;;;;;;8.88;6.30;;;9.40;99.90;;;;;;5015606;28;20475;-83
2020/12/19 11:16:47;;;;;;;6.03;5.20;;;9.50;99.90;;;;;;5016561;28;20283;-84
2020/12/19 11:19:14;;;;;;;5.60;5.00;;;9.60;99.90;;;;;;5015189;28;20541;-84
2020/12/19 11:21:45;;;;;;;7.40;4.93;;;9.60;99.90;;;;;;5010936;28;20557;-84
2020/12/19 11:24:11;;;;;;;6.93;5.60;;;9.70;99.90;;;;;;5016319;28;20546;-86
2020/12/19 11:26:40;;;;;;;5.30;4.57;;;9.80;99.90;;;;;;5016318;28;20454;-83
2020/12/19 11:29:06;;;;;;;6.93;5.53;;;9.80;99.90;;;;;;5016109;28;20508;-84
2020/12/19 11:31:33;;;;;;;3.93;3.63;;;9.80;99.90;;;;;;5016077;28;20500;-84
2020/12/19 11:33:59;;;;;;;6.23;4.83;;;9.90;99.90;;;;;;5015517;28;20548;-83
2020/12/19 11:36:27;;;;;;;5.27;4.77;;;9.90;99.90;;;;;;5015316;28;20466;-84
2020/12/19 11:38:53;;;;;;;5.20;4.40;;;9.90;99.90;;;;;;5016019;28;20533;-85
2020/12/19 11:41:23;;;;;;;6.00;4.43;;;10.00;99.90;;;;;;5016082;28;20454;-85
2020/12/19 11:43:50;;;;;;;5.70;4.43;;;10.00;99.90;;;;;;5015809;28;20449;-84
2020/12/19 11:46:17;;;;;;;10.23;6.13;;;10.00;99.90;;;;;;4981575;28;20530;-86
2020/12/19 11:48:44;;;;;;;6.47;4.63;;;10.00;99.90;;;;;;5017611;28;20505;-85
2020/12/19 11:51:11;;;;;;;6.80;5.27;;;10.00;99.90;;;;;;5014499;28;20518;-83
2020/12/19 11:53:38;;;;;;;6.87;5.20;;;10.00;99.90;;;;;;5015329;28;20745;-81
2020/12/19 11:56:05;;;;;;;5.60;4.83;;;10.00;99.90;;;;;;5015703;28;20542;-80
2020/12/19 11:58:31;;;;;;;5.13;4.63;;;10.00;99.90;;;;;;5015757;28;20443;-81
2020/12/19 12:00:58;;;;;;;7.53;5.07;;;10.10;99.90;;;;;;5015750;28;20465;-82
2020/12/19 12:03:24;;;;;;;4.90;4.47;;;10.20;99.90;;;;;;5015710;28;20460;-82
2020/12/19 12:05:51;;;;;;;5.20;4.00;;;10.20;99.90;;;;;;5014113;28;20550;-81
2020/12/19 12:08:17;;;;;;;7.83;5.70;;;10.30;99.90;;;;;;5015352;28;20879;-81
2020/12/19 12:10:44;;;;;;;5.50;4.50;;;10.40;99.90;;;;;;5015318;28;20486;-81
2020/12/19 12:13:10;;;;;;;6.83;4.80;;;10.30;99.90;;;;;;5015522;28;20533;-81
2020/12/19 12:15:37;;;;;;;6.33;4.50;;;10.40;99.90;;;;;;5015418;28;20808;-81
2020/12/19 12:18:03;;;;;;;4.57;4.13;;;10.50;99.90;;;;;;5011411;28;20483;-81
2020/12/19 12:20:30;;;;;;;4.47;4.07;;;10.60;99.90;;;;;;5013827;28;20462;-81
2020/12/19 12:22:56;;;;;;;4.83;4.20;;;10.60;99.90;;;;;;5015166;28;20460;-80
2020/12/19 12:25:22;;;;;;;4.40;3.83;;;10.70;99.90;;;;;;5015127;28;20537;-81
2020/12/19 12:27:50;;;;;;;5.00;4.40;;;10.70;99.90;;;;;;5015277;28;20431;-81
2020/12/19 12:30:16;;;;;;;6.40;4.67;;;10.80;99.90;;;;;;5015304;28;20542;-81
2020/12/19 12:32:44;;;;;;;5.13;4.57;;;10.90;99.90;;;;;;5015311;28;20644;-81
2020/12/19 12:35:11;;;;;;;5.83;4.47;;;11.10;99.70;;;;;;5013409;28;20553;-80
2020/12/19 12:37:37;;;;;;;5.07;4.13;;;11.30;99.80;;;;;;5014997;28;21128;-80
2020/12/19 12:40:04;;;;;;;5.43;4.70;;;11.30;99.40;;;;;;5014757;28;20541;-81
2020/12/19 12:42:30;;;;;;;5.33;4.83;;;11.40;99.10;;;;;;5014913;28;20961;-81
2020/12/19 12:44:57;;;;;;;5.57;4.23;;;11.40;99.00;;;;;;5014696;28;20451;-81
2020/12/19 12:47:24;;;;;;;4.63;4.23;;;11.50;98.10;;;;;;5014727;28;20538;-80
2020/12/19 12:49:50;;;;;;;4.40;4.00;;;11.50;98.00;;;;;;5013217;28;20557;-81
2020/12/19 12:52:16;;;;;;;4.40;4.00;;;11.50;97.70;;;;;;5014454;28;20494;-82
2020/12/19 12:54:43;;;;;;;6.17;4.77;;;11.60;97.20;;;;;;5014458;28;21235;-82
2020/12/19 12:57:09;;;;;;;5.83;4.00;;;11.70;96.60;;;;;;5014538;28;20537;-82
2020/12/19 12:59:35;;;;;;;6.00;4.73;;;11.70;96.60;;;;;;5014528;28;20538;-81